Time;durP1;ratioP1;P1;durP2;ratioP2;P2;SDS_P1;SDS_P2;PMS_P1;PMS_P2;Temp;Humidity;BMP_temperature;BMP_pressure;BME280_temperature;BME280_humidity;BME280_pressure;Samples;Min_cycle;Max_cycle;Signal;HPM_P1;HPM_P2
2023/01/01 00:00:12;;;;;;;33.20;24.60;;;;;;;10.77;60.87;101586.73;106218;1300;21951;-61
2023/01/01 00:02:38;;;;;;;30.80;22.50;;;;;;;10.76;60.87;101590.41;105578;1300;1003087;-62
2023/01/01 00:05:05;;;;;;;32.20;21.60;;;;;;;10.73;60.93;101598.63;106275;1300;22012;-62
2023/01/01 00:07:31;;;;;;;31.50;22.60;;;;;;;10.68;60.73;101602.64;106450;1300;21996;-61
2023/01/01 00:12:44;;;;;;;30.80;22.20;;;;;;;10.65;60.61;101606.47;106348;1299;21972;-61
2023/01/01 00:15:10;;;;;;;29.20;21.90;;;;;;;10.62;60.49;101605.57;106473;1300;22123;-63
2023/01/01 00:17:36;;;;;;;32.10;23.20;;;;;;;10.61;60.42;101599.08;106338;1300;22109;-62
2023/01/01 00:20:03;;;;;;;36.40;26.40;;;;;;;10.61;60.61;101593.81;106360;1298;21963;-63
2023/01/01 00:22:29;;;;;;;40.40;28.60;;;;;;;10.61;60.54;101596.45;106447;1300;23629;-62
2023/01/01 00:24:55;;;;;;;54.20;33.80;;;;;;;10.56;60.43;101601.33;106358;1299;21953;-62
2023/01/01 00:27:21;;;;;;;54.50;33.60;;;;;;;10.50;60.74;101603.20;106305;1300;21959;-62
2023/01/01 00:29:47;;;;;;;61.10;37.00;;;;;;;10.39;61.09;101602.41;106426;1299;21957;-60
2023/01/01 00:32:13;;;;;;;57.00;34.10;;;;;;;10.36;61.42;101605.01;106272;1300;21965;-62
2023/01/01 00:34:38;;;;;;;58.50;36.10;;;;;;;10.38;61.41;101605.73;106326;1300;21968;-60
2023/01/01 00:37:04;;;;;;;61.60;35.60;;;;;;;10.42;61.29;101606.66;106307;1300;21971;-60
2023/01/01 00:39:30;;;;;;;65.10;36.80;;;;;;;10.46;61.03;101604.23;105567;1300;1003799;-60
2023/01/01 00:41:56;;;;;;;72.20;38.20;;;;;;;10.41;60.90;101602.27;106411;1300;21960;-62
2023/01/01 00:44:25;;;;;;;46.90;29.90;;;;;;;10.40;60.78;101602.08;106277;1300;21956;-62
2023/01/01 00:46:50;;;;;;;43.70;28.10;;;;;;;10.44;60.68;101605.27;106267;1300;21967;-61
2023/01/01 00:49:16;;;;;;;37.50;26.50;;;;;;;10.37;60.89;101609.77;106281;1300;21992;-60
2023/01/01 00:51:42;;;;;;;34.40;23.70;;;;;;;10.36;60.79;101613.42;106296;1300;21959;-62
2023/01/01 00:54:08;;;;;;;34.60;24.80;;;;;;;10.33;60.79;101617.44;106569;1300;21941;-62
2023/01/01 00:56:34;;;;;;;34.70;24.70;;;;;;;10.33;60.80;101614.80;106542;1300;21974;-61
2023/01/01 00:59:00;;;;;;;32.70;24.40;;;;;;;10.34;60.78;101617.98;106482;1300;21968;-62
2023/01/01 01:01:26;;;;;;;32.30;24.00;;;;;;;10.31;60.82;101616.71;106508;1300;21941;-63
2023/01/01 01:03:52;;;;;;;37.00;24.30;;;;;;;10.29;60.71;101614.59;106481;1292;21944;-61
2023/01/01 01:06:20;;;;;;;31.70;24.20;;;;;;;10.27;60.67;101609.84;106736;1300;21957;-60
2023/01/01 01:08:46;;;;;;;34.30;24.90;;;;;;;10.25;60.63;101608.41;106720;1299;21960;-62
2023/01/01 01:11:14;;;;;;;36.40;25.20;;;;;;;10.21;60.72;101603.29;106339;1298;21955;-62
2023/01/01 01:13:40;;;;;;;35.20;25.30;;;;;;;10.22;60.81;101600.32;106376;1300;21957;-61
2023/01/01 01:16:15;;;;;;;55.60;30.50;;;;;;;10.28;60.85;101601.60;106339;1300;21959;-62
2023/01/01 01:18:42;;;;;;;60.40;32.30;;;;;;;10.30;60.83;101601.61;106350;1297;21957;-62
2023/01/01 01:21:08;;;;;;;46.80;29.00;;;;;;;10.31;60.71;101599.88;106362;1300;21953;-62
2023/01/01 01:23:34;;;;;;;38.80;25.90;;;;;;;10.33;60.77;101598.13;106501;1300;21962;-60
2023/01/01 01:26:07;;;;;;;39.20;27.60;;;;;;;10.27;60.86;101599.66;106404;1300;21959;-62
2023/01/01 01:28:33;;;;;;;36.30;25.50;;;;;;;10.26;60.74;101598.78;106320;1296;21949;-62
2023/01/01 01:30:59;;;;;;;40.80;26.60;;;;;;;10.27;60.73;101595.46;106305;1300;21948;-60
2023/01/01 01:33:26;;;;;;;47.30;29.60;;;;;;;10.26;60.75;101593.16;106320;1299;22030;-63
2023/01/01 01:35:52;;;;;;;49.20;31.10;;;;;;;10.25;60.71;101589.13;106248;1298;21999;-60
2023/01/01 01:38:19;;;;;;;40.50;26.60;;;;;;;10.26;60.76;101586.33;107090;1300;21947;-62
2023/01/01 01:40:45;;;;;;;36.60;25.10;;;;;;;10.27;60.89;101584.05;106480;1300;22000;-61
2023/01/01 01:43:44;;;;;;;35.70;24.60;;;;;;;10.25;60.95;101583.69;106377;1300;21953;-62
2023/01/01 01:46:13;;;;;;;42.40;28.50;;;;;;;10.26;60.92;101583.69;106436;1299;21998;-60
2023/01/01 01:48:42;;;;;;;40.10;27.00;;;;;;;10.26;60.96;101581.08;106395;1300;21969;-61
2023/01/01 01:51:07;;;;;;;38.40;25.10;;;;;;;10.25;61.04;101575.61;106344;1300;21978;-62
2023/01/01 01:53:37;;;;;;;36.10;25.80;;;;;;;10.23;61.20;101577.00;106274;1300;21959;-62
2023/01/01 01:56:06;;;;;;;35.50;24.80;;;;;;;10.24;61.23;101574.71;106508;1299;21969;-61
2023/01/01 01:58:31;;;;;;;34.70;24.50;;;;;;;10.23;61.32;101578.40;106476;1300;23071;-62
2023/01/01 02:00:57;;;;;;;34.80;23.60;;;;;;;10.23;61.30;101577.87;106362;1300;21967;-62
2023/01/01 02:03:42;;;;;;;37.70;26.00;;;;;;;10.28;61.14;101574.23;106365;1297;22003;-62
2023/01/01 02:06:09;;;;;;;36.00;25.40;;;;;;;10.27;61.17;101575.63;106478;1300;22075;-62
2023/01/01 02:08:36;;;;;;;35.10;24.30;;;;;;;10.29;61.17;101576.70;106457;1300;22066;-61
2023/01/01 02:11:02;;;;;;;35.90;25.30;;;;;;;10.28;61.09;101573.02;105594;1300;1002524;-61
2023/01/01 02:13:30;;;;;;;35.30;24.30;;;;;;;10.28;61.32;101571.95;106416;1291;21966;-62
2023/01/01 02:16:09;;;;;;;35.00;24.50;;;;;;;10.27;61.17;101575.81;106438;1300;21997;-61
2023/01/01 02:18:57;;;;;;;39.00;24.80;;;;;;;10.27;61.15;101572.83;106424;1300;22112;-61
2023/01/01 02:21:32;;;;;;;39.10;26.00;;;;;;;10.25;61.33;101570.52;106455;1299;21967;-61
2023/01/01 02:24:17;;;;;;;35.00;24.10;;;;;;;10.24;61.29;101567.90;106441;1298;21964;-61
2023/01/01 02:26:59;;;;;;;36.20;25.00;;;;;;;10.23;61.24;101558.59;106353;1300;21963;-62
2023/01/01 02:29:28;;;;;;;37.10;26.10;;;;;;;10.21;61.25;101551.37;106432;1298;22112;-63
2023/01/01 02:32:14;;;;;;;36.70;24.60;;;;;;;10.19;61.37;101551.52;106343;1300;22028;-61
2023/01/01 02:34:49;;;;;;;33.40;24.70;;;;;;;10.17;61.36;101557.82;106357;1298;22023;-61
2023/01/01 02:37:15;;;;;;;33.70;24.60;;;;;;;10.15;61.30;101562.91;106390;1303;21960;-61
2023/01/01 02:39:46;;;;;;;40.10;25.40;;;;;;;10.16;61.29;101564.31;106272;1303;21962;-62
2023/01/01 02:42:12;;;;;;;39.50;27.00;;;;;;;10.17;61.20;101562.55;106409;1298;22009;-61
2023/01/01 02:44:40;;;;;;;38.10;27.30;;;;;;;10.15;61.09;101562.55;106295;1300;21950;-61
2023/01/01 02:47:07;;;;;;;38.10;26.50;;;;;;;10.11;61.08;101556.39;106471;1300;21990;-61
2023/01/01 02:49:37;;;;;;;39.30;26.80;;;;;;;10.08;61.13;101559.34;106444;1300;23072;-62
2023/01/01 02:52:10;;;;;;;40.30;25.80;;;;;;;10.03;61.29;101557.89;106429;1300;22001;-62
2023/01/01 02:55:24;;;;;;;36.60;24.20;;;;;;;10.01;61.28;101558.05;106350;1300;21954;-61
2023/01/01 03:00:17;;;;;;;37.50;24.80;;;;;;;9.97;61.10;101552.92;106406;1300;21951;-62
2023/01/01 03:00:47;;;;;;;40.00;26.00;;;;;;;9.93;61.24;101544.83;106514;1300;21958;-62
2023/01/01 03:03:27;;;;;;;38.40;25.00;;;;;;;9.93;61.37;101542.73;106345;1300;22420;-61
2023/01/01 03:06:21;;;;;;;41.60;27.70;;;;;;;9.93;61.63;101543.08;106406;1300;22041;-61
2023/01/01 03:08:59;;;;;;;36.50;25.30;;;;;;;9.93;61.82;101539.91;106339;1292;21961;-62
2023/01/01 03:11:30;;;;;;;35.40;22.40;;;;;;;9.95;61.89;101543.61;106402;1300;21962;-61
2023/01/01 03:14:11;;;;;;;35.60;24.40;;;;;;;10.01;61.81;101548.92;106513;1300;22000;-61
2023/01/01 03:16:51;;;;;;;35.60;24.10;;;;;;;10.10;61.60;101551.83;106526;1300;22018;-61
2023/01/01 03:19:19;;;;;;;33.80;23.90;;;;;;;10.14;61.52;101553.08;106494;1300;21953;-61
2023/01/01 03:21:47;;;;;;;34.60;25.80;;;;;;;10.18;61.53;101552.57;106389;1300;21950;-61
2023/01/01 03:24:25;;;;;;;38.60;25.60;;;;;;;10.23;61.30;101550.33;106266;1300;21967;-61
2023/01/01 03:26:54;;;;;;;34.00;24.30;;;;;;;10.18;61.20;101543.45;106318;1298;21963;-61
2023/01/01 03:29:21;;;;;;;39.20;25.30;;;;;;;10.13;61.11;101542.20;106355;1300;21955;-61
2023/01/01 03:31:49;;;;;;;36.20;25.00;;;;;;;10.11;61.33;101538.14;106505;1300;21976;-61
2023/01/01 03:34:21;;;;;;;36.20;24.60;;;;;;;10.00;61.41;101535.95;106516;1300;21976;-62
2023/01/01 03:36:50;;;;;;;37.90;24.20;;;;;;;10.04;61.28;101530.72;106400;1300;21963;-63
2023/01/01 03:39:43;;;;;;;35.20;25.00;;;;;;;10.06;61.30;101527.58;106414;1300;21963;-61
2023/01/01 03:42:13;;;;;;;39.30;26.50;;;;;;;10.06;61.23;101526.35;106510;1300;22014;-62
2023/01/01 03:44:47;;;;;;;38.00;26.70;;;;;;;10.01;61.27;101526.30;106570;1300;21945;-61
2023/01/01 03:47:14;;;;;;;38.60;25.90;;;;;;;9.88;61.76;101534.60;106397;1299;21956;-62
2023/01/01 03:49:41;;;;;;;37.30;25.80;;;;;;;9.85;62.11;101543.17;106306;1300;21971;-61
2023/01/01 03:52:26;;;;;;;37.10;25.40;;;;;;;10.06;61.69;101544.23;106270;1300;22143;-62
2023/01/01 03:54:55;;;;;;;34.90;24.10;;;;;;;10.15;61.48;101546.06;106292;1301;22002;-61
2023/01/01 03:57:22;;;;;;;35.70;25.30;;;;;;;10.20;61.38;101551.89;106523;1301;21998;-62
2023/01/01 03:59:52;;;;;;;39.50;25.70;;;;;;;10.23;61.25;101561.04;106438;1293;21952;-61
2023/01/01 04:02:20;;;;;;;39.80;25.50;;;;;;;10.22;61.17;101564.54;106404;1301;21959;-61
2023/01/01 04:04:47;;;;;;;34.80;24.10;;;;;;;10.21;61.21;101567.34;106340;1301;21956;-61
2023/01/01 04:07:12;;;;;;;32.60;23.30;;;;;;;10.21;61.15;101566.46;106280;1301;21964;-62
2023/01/01 04:09:38;;;;;;;34.30;24.10;;;;;;;10.22;60.88;101573.13;106288;1301;22008;-61
2023/01/01 04:12:04;;;;;;;33.90;24.10;;;;;;;10.23;60.96;101577.17;106239;1300;22004;-62
2023/01/01 04:14:38;;;;;;;35.90;24.90;;;;;;;10.23;60.75;101581.39;106185;1301;21965;-61
2023/01/01 04:17:06;;;;;;;33.90;23.30;;;;;;;10.20;60.80;101584.34;105198;1300;1002354;-61
2023/01/01 04:19:31;;;;;;;33.50;24.00;;;;;;;10.16;60.82;101580.98;106742;1300;21976;-62
2023/01/01 04:21:57;;;;;;;37.50;26.10;;;;;;;10.13;60.72;101578.16;106555;1300;21951;-61
2023/01/01 04:24:26;;;;;;;30.40;23.40;;;;;;;10.11;60.86;101574.45;106567;1300;21964;-61
2023/01/01 04:26:53;;;;;;;35.80;24.50;;;;;;;10.09;60.72;101572.68;106555;1300;21953;-61
2023/01/01 04:29:19;;;;;;;40.30;26.50;;;;;;;10.10;60.93;101569.52;106478;1300;21988;-61
2023/01/01 04:31:46;;;;;;;36.00;24.00;;;;;;;10.10;60.89;101572.16;106545;1300;21977;-61
2023/01/01 04:34:11;;;;;;;34.50;23.10;;;;;;;10.13;60.81;101576.39;106363;1300;21961;-62
2023/01/01 04:36:38;;;;;;;34.10;23.70;;;;;;;10.18;60.84;101574.85;106221;1303;21957;-61
2023/01/01 04:39:04;;;;;;;33.90;22.80;;;;;;;10.23;60.82;101577.17;106439;1302;21959;-61
2023/01/01 04:41:30;;;;;;;34.10;23.50;;;;;;;10.27;60.66;101581.94;105526;1303;1003142;-62
2023/01/01 04:43:56;;;;;;;36.80;25.00;;;;;;;10.27;60.77;101584.05;104712;1303;1002600;-62
2023/01/01 04:46:22;;;;;;;37.80;24.50;;;;;;;10.28;60.72;101582.84;106238;1303;21986;-61
2023/01/01 04:48:48;;;;;;;34.30;23.20;;;;;;;10.28;60.63;101584.25;106204;1303;21965;-62
2023/01/01 04:51:15;;;;;;;37.10;22.40;;;;;;;10.29;60.48;101588.45;106303;1302;21971;-61
2023/01/01 04:53:40;;;;;;;36.10;24.80;;;;;;;10.29;60.23;101581.44;106461;1301;22088;-61
2023/01/01 04:56:11;;;;;;;35.10;24.00;;;;;;;10.24;60.01;101586.13;106346;1300;21980;-61
2023/01/01 04:58:38;;;;;;;34.30;24.10;;;;;;;10.20;59.97;101590.29;106322;1300;21970;-61
2023/01/01 05:01:05;;;;;;;34.20;24.40;;;;;;;10.15;60.10;101593.61;106338;1298;21968;-61
2023/01/01 05:03:30;;;;;;;38.20;25.90;;;;;;;10.08;60.13;101594.95;106355;1300;21954;-62
2023/01/01 05:06:03;;;;;;;37.30;25.40;;;;;;;10.04;60.11;101592.98;106319;1303;21941;-61
2023/01/01 05:08:30;;;;;;;36.30;25.60;;;;;;;10.03;60.26;101587.70;106587;1300;21974;-61
2023/01/01 05:11:04;;;;;;;34.20;23.20;;;;;;;10.02;60.38;101587.17;106397;1300;21964;-61
2023/01/01 05:13:31;;;;;;;35.80;25.00;;;;;;;10.01;60.48;101586.11;106391;1300;21954;-62
2023/01/01 05:16:01;;;;;;;35.40;24.80;;;;;;;10.05;60.59;101587.20;105982;1302;339656;-61
2023/01/01 05:18:27;;;;;;;;;;;;;;;10.11;60.34;101593.02;106457;1300;21941;-61
2023/01/01 05:20:53;;;;;;;39.40;25.90;;;;;;;10.12;60.35;101598.15;106437;1300;21981;-61
2023/01/01 05:23:18;;;;;;;34.10;23.50;;;;;;;10.16;60.32;101593.77;106361;1300;21948;-61
2023/01/01 05:25:47;;;;;;;37.00;25.80;;;;;;;10.17;60.43;101595.71;106394;1300;22001;-61
2023/01/01 05:28:13;;;;;;;39.50;26.30;;;;;;;10.18;60.49;101597.81;106310;1300;21957;-61
2023/01/01 05:30:39;;;;;;;37.00;25.20;;;;;;;10.14;60.27;101596.39;106403;1300;21965;-61
2023/01/01 05:33:05;;;;;;;35.70;23.90;;;;;;;10.12;60.32;101596.38;106291;1300;21998;-61
2023/01/01 05:35:30;;;;;;;35.60;24.40;;;;;;;10.10;60.46;101595.14;106310;1300;21958;-62
2023/01/01 05:37:59;;;;;;;36.00;25.80;;;;;;;10.11;60.27;101595.50;106539;1300;21945;-63
2023/01/01 05:40:25;;;;;;;37.30;25.20;;;;;;;10.14;60.20;101588.68;106679;1300;23069;-61
2023/01/01 05:42:51;;;;;;;36.30;25.80;;;;;;;10.11;60.14;101589.17;106605;1300;21941;-61
2023/01/01 05:45:17;;;;;;;34.40;26.30;;;;;;;10.09;60.21;101591.44;106595;1295;21956;-61
2023/01/01 05:47:43;;;;;;;38.50;25.50;;;;;;;10.09;60.21;101592.15;106629;1300;21979;-62
2023/01/01 05:50:08;;;;;;;33.80;24.50;;;;;;;10.07;60.32;101589.67;106282;1300;21969;-63
2023/01/01 05:52:35;;;;;;;40.90;25.60;;;;;;;10.03;60.33;101590.86;106216;1297;21965;-62
2023/01/01 05:55:01;;;;;;;38.10;25.80;;;;;;;10.00;60.28;101590.65;106243;1300;24100;-61
2023/01/01 05:57:28;;;;;;;37.40;26.90;;;;;;;9.98;60.43;101593.61;106294;1300;22045;-61
2023/01/01 05:59:54;;;;;;;40.80;26.00;;;;;;;9.96;60.34;101588.68;106439;1300;21957;-62
2023/01/01 06:02:20;;;;;;;36.90;25.50;;;;;;;9.91;60.47;101590.23;106306;1300;21955;-62
2023/01/01 06:04:46;;;;;;;39.40;26.10;;;;;;;9.91;60.41;101591.45;106419;1300;21951;-61
2023/01/01 06:07:12;;;;;;;36.60;26.80;;;;;;;9.93;60.41;101597.25;106263;1300;21958;-62
2023/01/01 06:09:37;;;;;;;39.20;26.00;;;;;;;9.96;60.50;101603.77;106348;1300;21965;-62
2023/01/01 06:12:04;;;;;;;35.70;25.00;;;;;;;9.98;60.62;101604.14;106325;1300;22079;-62
2023/01/01 06:14:30;;;;;;;37.90;26.40;;;;;;;9.97;60.70;101602.20;106516;1300;21944;-63
2023/01/01 06:16:57;;;;;;;40.50;26.90;;;;;;;9.91;60.83;101603.02;106440;1300;22429;-62
2023/01/01 06:19:23;;;;;;;35.20;24.90;;;;;;;9.86;60.95;101608.23;106294;1300;21957;-61
2023/01/01 06:21:49;;;;;;;34.60;24.60;;;;;;;9.84;60.85;101615.92;106395;1300;21926;-62
2023/01/01 06:24:15;;;;;;;36.60;26.00;;;;;;;9.87;60.95;101613.16;106551;1300;21953;-62
2023/01/01 06:26:41;;;;;;;38.60;24.70;;;;;;;9.89;61.31;101611.77;106454;1300;23674;-62
2023/01/01 06:29:07;;;;;;;36.10;25.70;;;;;;;9.90;61.30;101609.50;106531;1301;21950;-62
2023/01/01 06:31:33;;;;;;;42.10;28.20;;;;;;;9.92;61.36;101603.02;106492;1300;21948;-62
2023/01/01 06:33:59;;;;;;;37.40;26.20;;;;;;;9.92;61.31;101603.73;106509;1300;21967;-62
2023/01/01 06:36:27;;;;;;;36.80;25.30;;;;;;;9.89;61.73;101618.09;106606;1300;21953;-62
2023/01/01 06:39:02;;;;;;;35.60;24.20;;;;;;;9.98;61.68;101624.11;106493;1300;21961;-62
2023/01/01 06:41:29;;;;;;;35.20;24.50;;;;;;;10.04;61.80;101626.82;106220;1294;22020;-61
2023/01/01 06:43:56;;;;;;;33.40;24.30;;;;;;;10.09;61.63;101625.99;106552;1300;21959;-63
2023/01/01 06:46:33;;;;;;;33.60;23.90;;;;;;;10.09;61.41;101624.40;106631;1300;24057;-61
2023/01/01 06:49:04;;;;;;;37.20;25.30;;;;;;;10.14;61.36;101621.13;106651;1295;22431;-62
2023/01/01 06:51:32;;;;;;;35.90;24.50;;;;;;;10.16;61.15;101616.75;106708;1300;21992;-62
2023/01/01 06:53:58;;;;;;;38.40;26.70;;;;;;;10.18;61.29;101609.39;106553;1298;22041;-61
2023/01/01 06:56:27;;;;;;;35.50;24.20;;;;;;;10.21;61.28;101608.04;106522;1300;23100;-61
2023/01/01 06:58:53;;;;;;;37.40;26.00;;;;;;;10.27;61.28;101621.77;106549;1293;22142;-62
2023/01/01 07:01:26;;;;;;;35.50;24.60;;;;;;;10.31;61.30;101633.55;106487;1292;22118;-61
2023/01/01 07:03:55;;;;;;;36.90;25.60;;;;;;;10.35;61.50;101646.58;106472;1300;21953;-62
2023/01/01 07:06:22;;;;;;;34.80;24.90;;;;;;;10.42;61.53;101653.52;106306;1303;21950;-62
2023/01/01 07:08:48;;;;;;;37.00;24.80;;;;;;;10.48;61.59;101654.79;106600;1287;22432;-61
2023/01/01 07:11:14;;;;;;;34.10;24.40;;;;;;;10.54;61.64;101663.45;106478;1292;21955;-62
2023/01/01 07:13:40;;;;;;;40.20;25.60;;;;;;;10.62;61.89;101661.56;106462;1301;21963;-62
2023/01/01 07:16:08;;;;;;;33.00;24.60;;;;;;;10.70;61.85;101660.59;106503;1300;22152;-61
2023/01/01 07:18:35;;;;;;;38.40;25.80;;;;;;;10.76;61.78;101664.84;106526;1300;21954;-62
2023/01/01 07:21:02;;;;;;;35.50;24.80;;;;;;;10.83;61.74;101676.47;106458;1300;21957;-62
2023/01/01 07:23:32;;;;;;;38.00;25.50;;;;;;;10.90;61.72;101683.54;106512;1300;21951;-63
2023/01/01 07:25:58;;;;;;;37.80;25.90;;;;;;;10.96;61.87;101687.98;106514;1297;21998;-62
2023/01/01 07:28:24;;;;;;;35.90;25.50;;;;;;;11.03;62.01;101687.52;106562;1300;21949;-62
2023/01/01 07:30:51;;;;;;;35.30;25.60;;;;;;;11.11;61.92;101688.09;106238;1304;21942;-62
2023/01/01 07:33:19;;;;;;;35.70;24.90;;;;;;;11.20;62.09;101693.77;106719;1300;21952;-62
2023/01/01 07:35:48;;;;;;;39.60;26.70;;;;;;;11.31;62.28;101695.41;106636;1302;21983;-62
2023/01/01 07:38:14;;;;;;;37.00;25.60;;;;;;;11.42;62.38;101702.33;106708;1301;21955;-63
2023/01/01 07:40:40;;;;;;;33.10;25.50;;;;;;;11.49;62.65;101701.48;106568;1300;21967;-63
2023/01/01 07:43:06;;;;;;;36.80;26.60;;;;;;;11.58;62.95;101699.42;106533;1303;21959;-63
2023/01/01 07:45:32;;;;;;;35.20;25.10;;;;;;;11.70;62.83;101697.36;106562;1304;21962;-63
2023/01/01 07:47:59;;;;;;;34.80;25.40;;;;;;;11.83;62.78;101688.27;106237;1303;21952;-62
2023/01/01 07:50:27;;;;;;;34.60;25.00;;;;;;;11.96;63.02;101687.77;106328;1301;21951;-64
2023/01/01 07:52:53;;;;;;;33.90;24.60;;;;;;;12.07;63.12;101684.67;106525;1300;21963;-62
2023/01/01 07:55:19;;;;;;;37.00;26.00;;;;;;;12.20;63.60;101684.54;106496;1301;21929;-64
2023/01/01 07:57:46;;;;;;;35.00;25.90;;;;;;;12.32;63.77;101682.44;106582;1302;21954;-62
2023/01/01 08:00:14;;;;;;;37.40;27.10;;;;;;;12.43;63.99;101677.88;106644;1302;21955;-62
2023/01/01 08:02:41;;;;;;;39.30;28.90;;;;;;;12.57;64.07;101679.64;106397;1300;21958;-62
2023/01/01 08:05:08;;;;;;;37.80;26.50;;;;;;;12.70;64.19;101679.45;106488;1301;21954;-64
2023/01/01 08:07:35;;;;;;;36.30;25.20;;;;;;;12.83;64.32;101677.87;106346;1303;22012;-64
2023/01/01 08:10:03;;;;;;;35.50;25.60;;;;;;;12.96;64.61;101678.55;106341;1297;22079;-62
2023/01/01 08:12:29;;;;;;;34.60;25.60;;;;;;;13.12;64.69;101680.63;106388;1301;21952;-63
2023/01/01 08:14:55;;;;;;;38.70;27.60;;;;;;;13.29;64.51;101678.66;106335;1301;21967;-61
2023/01/01 08:17:21;;;;;;;34.40;25.10;;;;;;;13.22;64.90;101675.67;106597;1300;21951;-64
2023/01/01 08:19:48;;;;;;;35.10;25.60;;;;;;;13.20;65.97;101679.21;106431;1301;21974;-64
2023/01/01 08:22:14;;;;;;;34.60;25.90;;;;;;;13.33;66.22;101681.65;106235;1304;21968;-65
2023/01/01 08:24:40;;;;;;;35.00;25.00;;;;;;;13.47;66.60;101685.69;104971;1305;1002625;-65
2023/01/01 08:27:06;;;;;;;40.10;26.80;;;;;;;13.61;66.57;101689.36;106411;1291;21958;-62
2023/01/01 08:29:32;;;;;;;32.60;25.10;;;;;;;13.75;66.76;101693.52;106415;1301;21948;-62
2023/01/01 08:31:58;;;;;;;32.70;24.40;;;;;;;13.95;66.79;101696.42;106483;1301;21956;-62
2023/01/01 08:34:24;;;;;;;31.80;24.00;;;;;;;14.25;66.03;101695.53;106494;1300;21958;-62
2023/01/01 08:36:50;;;;;;;33.00;24.40;;;;;;;14.45;65.64;101694.34;106401;1301;21955;-61
2023/01/01 08:39:16;;;;;;;34.90;25.90;;;;;;;14.61;65.54;101695.81;106504;1300;21978;-62
2023/01/01 08:41:41;;;;;;;37.60;25.70;;;;;;;14.76;65.35;101696.60;106371;1304;24358;-62
2023/01/01 08:44:07;;;;;;;34.20;24.50;;;;;;;14.88;65.39;101692.79;106244;1301;21953;-63
2023/01/01 08:46:34;;;;;;;33.60;23.30;;;;;;;15.04;65.01;101685.02;106448;1300;21941;-63
2023/01/01 08:49:00;;;;;;;35.00;23.90;;;;;;;15.18;64.98;101679.40;106602;1301;23635;-62
2023/01/01 08:51:26;;;;;;;29.00;22.70;;;;;;;15.34;64.84;101679.23;106544;1300;21965;-62
2023/01/01 08:53:52;;;;;;;31.80;23.80;;;;;;;15.49;64.99;101678.00;106518;1300;21954;-62
2023/01/01 08:56:19;;;;;;;32.50;23.80;;;;;;;15.66;64.99;101683.27;106471;1301;21954;-62
2023/01/01 08:58:44;;;;;;;29.90;23.00;;;;;;;15.79;65.01;101681.86;106391;1302;21968;-62
2023/01/01 09:01:11;;;;;;;28.40;21.60;;;;;;;15.93;64.86;101679.23;106287;1301;22016;-66
2023/01/01 09:03:37;;;;;;;27.50;21.10;;;;;;;16.03;64.26;101671.13;106276;1301;21962;-63
2023/01/01 09:06:05;;;;;;;31.60;24.70;;;;;;;16.14;64.28;101667.95;106503;1301;21963;-67
2023/01/01 09:08:31;;;;;;;28.20;22.20;;;;;;;16.24;63.98;101664.96;106302;1300;23747;-63
2023/01/01 09:10:58;;;;;;;31.70;25.00;;;;;;;16.30;63.71;101667.17;106309;1300;21954;-62
2023/01/01 09:13:24;;;;;;;26.80;20.60;;;;;;;16.42;63.74;101668.41;106332;1301;21996;-66
2023/01/01 09:15:51;;;;;;;30.70;22.50;;;;;;;16.51;63.77;101665.43;106263;1300;21952;-67
2023/01/01 09:18:17;;;;;;;32.10;24.40;;;;;;;16.61;63.79;101662.25;106631;1300;21957;-62
2023/01/01 09:20:43;;;;;;;26.20;20.80;;;;;;;16.74;63.95;101660.61;106448;1300;21966;-62
2023/01/01 09:23:09;;;;;;;30.80;23.00;;;;;;;16.90;64.19;101660.69;106340;1300;21959;-61
2023/01/01 09:25:35;;;;;;;28.10;20.70;;;;;;;17.10;63.98;101654.86;106245;1300;22246;-66
2023/01/01 09:28:03;;;;;;;24.20;17.70;;;;;;;17.23;64.03;101651.39;106477;1301;21963;-66
2023/01/01 09:30:30;;;;;;;21.40;16.70;;;;;;;17.29;62.67;101646.32;106612;1300;21968;-61
2023/01/01 09:32:57;;;;;;;20.10;15.80;;;;;;;17.39;62.24;101650.91;106462;1299;21956;-66
2023/01/01 09:35:22;;;;;;;20.50;16.40;;;;;;;17.45;62.20;101652.71;106574;1300;21964;-67
2023/01/01 09:37:48;;;;;;;20.70;15.90;;;;;;;17.54;62.37;101650.95;106612;1298;21964;-66
2023/01/01 09:40:32;;;;;;;20.70;16.90;;;;;;;17.59;62.27;101652.08;106821;1301;21949;-66
2023/01/01 09:43:42;;;;;;;22.50;16.00;;;;;;;17.67;62.14;101653.52;106278;1298;21962;-66
2023/01/01 09:46:10;;;;;;;22.20;15.70;;;;;;;17.77;61.15;101653.66;106352;1300;21958;-66
2023/01/01 09:48:38;;;;;;;19.70;14.70;;;;;;;17.77;60.07;101649.92;106356;1300;21956;-67
2023/01/01 09:51:05;;;;;;;20.20;14.30;;;;;;;17.86;60.93;101644.77;106372;1297;21978;-67
2023/01/01 09:53:31;;;;;;;18.80;15.10;;;;;;;17.95;61.45;101643.48;106353;1300;21998;-61
2023/01/01 09:55:59;;;;;;;17.60;15.00;;;;;;;18.05;61.68;101638.15;106305;1296;22005;-66
2023/01/01 09:58:31;;;;;;;18.20;14.30;;;;;;;18.17;61.06;101631.12;106268;1300;21975;-66
2023/01/01 10:01:02;;;;;;;18.20;12.70;;;;;;;18.29;60.79;101630.65;106327;1300;21965;-66
2023/01/01 10:03:39;;;;;;;;;;;;;;;18.40;60.41;101627.70;106394;1300;21940;-66
2023/01/01 10:06:14;;;;;;;20.10;13.40;;;;;;;18.50;60.43;101624.61;106475;1300;22001;-61
2023/01/01 10:08:59;;;;;;;19.70;14.80;;;;;;;18.61;60.20;101622.02;106322;1300;21951;-62
2023/01/01 10:11:36;;;;;;;19.10;14.10;;;;;;;18.73;59.97;101621.89;106509;1300;21950;-62
2023/01/01 10:14:12;;;;;;;18.20;13.40;;;;;;;18.83;59.71;101615.75;106442;1300;21953;-61
2023/01/01 10:16:49;;;;;;;20.70;14.20;;;;;;;18.83;59.07;101617.34;106275;1301;21956;-61
2023/01/01 10:19:33;;;;;;;19.50;15.20;;;;;;;18.93;59.62;101621.91;106511;1297;21958;-67
2023/01/01 10:22:02;;;;;;;18.40;14.30;;;;;;;18.98;60.65;101622.30;106554;1295;22004;-67
2023/01/01 10:24:42;;;;;;;16.70;13.30;;;;;;;18.78;60.05;101628.50;106490;1300;23791;-67
2023/01/01 10:27:30;;;;;;;18.50;13.80;;;;;;;18.81;61.04;101628.95;106491;1300;22409;-67
2023/01/01 10:29:56;;;;;;;18.60;13.30;;;;;;;18.85;59.78;101629.74;106378;1292;23080;-67
2023/01/01 10:32:33;;;;;;;17.90;13.20;;;;;;;18.85;59.40;101628.66;106138;1301;21964;-67
2023/01/01 10:34:59;;;;;;;18.00;14.00;;;;;;;18.92;59.95;101622.43;106505;1300;21947;-67
2023/01/01 10:37:28;;;;;;;16.10;13.20;;;;;;;18.95;60.34;101618.30;106468;1300;21970;-61
2023/01/01 10:39:54;;;;;;;16.10;11.50;;;;;;;19.01;59.85;101614.04;106600;1300;21958;-62
2023/01/01 10:42:21;;;;;;;13.80;11.30;;;;;;;19.08;58.83;101609.23;106497;1300;21962;-67
2023/01/01 10:44:47;;;;;;;12.80;10.30;;;;;;;19.07;58.39;101605.51;106731;1300;21998;-61
2023/01/01 10:47:28;;;;;;;14.70;10.60;;;;;;;19.02;58.76;101603.16;106374;1300;21952;-62
2023/01/01 10:50:01;;;;;;;13.80;10.70;;;;;;;19.06;58.25;101598.27;106377;1298;22001;-62
2023/01/01 10:52:34;;;;;;;13.20;9.60;;;;;;;19.03;57.29;101597.63;106209;1303;21956;-67
2023/01/01 10:55:01;;;;;;;12.70;10.00;;;;;;;19.00;57.51;101595.23;106245;1300;23151;-67
2023/01/01 10:57:38;;;;;;;11.50;9.70;;;;;;;18.96;57.97;101593.53;106288;1300;21960;-63
2023/01/01 11:00:11;;;;;;;15.10;11.10;;;;;;;18.93;57.99;101591.83;106325;1300;21971;-68
2023/01/01 11:02:37;;;;;;;15.00;10.80;;;;;;;18.97;59.16;101588.53;106519;1299;21981;-62
2023/01/01 11:05:17;;;;;;;15.60;10.90;;;;;;;18.91;59.30;101583.87;106266;1301;21972;-61
2023/01/01 11:07:43;;;;;;;14.20;10.40;;;;;;;18.87;59.27;101573.84;106461;1291;22347;-68
2023/01/01 11:10:21;;;;;;;16.00;11.60;;;;;;;18.86;60.33;101572.98;106313;1298;21952;-67
2023/01/01 11:12:50;;;;;;;14.60;11.60;;;;;;;19.05;60.11;101575.51;106758;1300;21947;-67